createdAt,value
2018-03-07T17:09:24.989Z,12.77
2018-03-07T17:11:58.634Z,10.50
2018-03-07T17:14:32.294Z,6.07
2018-03-07T17:17:05.805Z,52.00
2018-03-07T17:19:39.468Z,25.90
2018-03-07T17:22:13.129Z,15.77
2018-03-07T17:24:46.674Z,6.10
2018-03-07T17:27:20.310Z,15.43
2018-03-07T17:29:54.025Z,6.70
2018-03-07T17:32:27.708Z,5.10
2018-03-07T17:35:01.241Z,6.33
2018-03-07T17:37:34.866Z,7.80
2018-03-07T17:40:08.340Z,3.80
2018-03-07T17:42:42.074Z,4.50
2018-03-07T17:45:15.654Z,4.60
2018-03-07T17:47:49.297Z,4.63
2018-03-07T17:50:22.877Z,4.17
2018-03-07T17:52:56.538Z,4.27
2018-03-07T17:55:30.286Z,6.30
2018-03-07T17:58:03.882Z,4.43
2018-03-07T18:00:37.538Z,8.00
2018-03-07T18:03:11.197Z,7.03
2018-03-07T18:05:44.898Z,5.63
2018-03-07T18:08:18.516Z,4.10
2018-03-07T18:10:52.098Z,4.60
2018-03-07T18:13:25.811Z,27.33
2018-03-07T18:15:59.515Z,6.73
2018-03-07T18:18:33.161Z,11.23
2018-03-07T18:21:06.974Z,5.00
2018-03-07T18:23:40.485Z,28.13
2018-03-07T18:26:17.613Z,24.60
2018-03-07T18:28:51.154Z,6.20
2018-03-07T18:31:24.754Z,37.23
2018-03-07T18:33:58.277Z,6.13
2018-03-07T18:36:31.965Z,84.47
2018-03-07T18:39:05.554Z,38.00
2018-03-07T18:41:39.066Z,66.47
2018-03-07T18:44:12.599Z,20.70
2018-03-07T18:46:46.314Z,20.33
2018-03-07T18:49:19.994Z,23.10
2018-03-07T18:51:55.069Z,16.10
2018-03-07T18:54:28.849Z,27.47
2018-03-07T18:57:07.003Z,10.37
2018-03-07T18:59:40.578Z,9.33
2018-03-07T19:02:14.357Z,13.63
2018-03-07T19:04:48.162Z,14.33
2018-03-07T19:07:21.890Z,11.37
2018-03-07T19:09:55.549Z,10.53
2018-03-07T19:12:29.161Z,8.30
2018-03-07T19:15:02.870Z,7.77
2018-03-07T19:17:36.445Z,8.30
2018-03-07T19:20:09.972Z,9.00
2018-03-07T19:22:43.571Z,8.80
2018-03-07T19:25:17.260Z,8.47
2018-03-07T19:27:50.784Z,8.90
2018-03-07T19:30:24.437Z,10.00
2018-03-07T19:32:58.101Z,8.93
2018-03-07T19:35:31.737Z,9.37
2018-03-07T19:38:05.292Z,9.80
2018-03-07T19:40:38.942Z,10.20
2018-03-07T19:43:12.522Z,10.60
2018-03-07T19:45:46.198Z,12.00
2018-03-07T19:48:19.875Z,11.80
2018-03-07T19:50:53.425Z,12.57
2018-03-07T19:53:27.210Z,15.40
2018-03-07T19:56:00.837Z,12.40
2018-03-07T19:58:34.385Z,16.30
2018-03-07T20:01:07.963Z,12.43
2018-03-07T20:03:41.542Z,25.73
2018-03-07T20:06:15.248Z,12.70
2018-03-07T20:08:48.801Z,12.67
2018-03-07T20:11:22.421Z,18.97
2018-03-07T20:13:56.102Z,18.53
2018-03-07T20:16:29.630Z,14.93
2018-03-07T20:19:03.253Z,16.73
2018-03-07T20:21:36.862Z,18.53
2018-03-07T20:24:10.405Z,18.63
2018-03-07T20:26:44.062Z,18.00
2018-03-07T20:29:17.690Z,20.07
2018-03-07T20:31:51.254Z,20.30
2018-03-07T20:34:24.797Z,20.40
2018-03-07T20:36:58.498Z,20.43
2018-03-07T20:39:32.106Z,27.17
2018-03-07T20:42:05.635Z,23.67
2018-03-07T20:44:39.250Z,22.07
2018-03-07T20:47:12.882Z,25.07
2018-03-07T20:49:46.574Z,33.53
2018-03-07T20:52:20.146Z,26.77
2018-03-07T20:54:53.697Z,31.67
2018-03-07T20:57:27.326Z,27.73
2018-03-07T21:00:00.898Z,27.43
2018-03-07T21:02:34.650Z,27.07
2018-03-07T21:05:08.233Z,32.63
2018-03-07T21:07:42.222Z,32.20
2018-03-07T21:10:15.962Z,37.60
2018-03-07T21:12:49.509Z,29.67
2018-03-07T21:15:23.110Z,31.70
2018-03-07T21:17:56.770Z,43.33
2018-03-07T21:20:30.282Z,29.10
2018-03-07T21:23:03.970Z,29.97
2018-03-07T21:25:37.490Z,23.20
2018-03-07T21:28:11.210Z,21.30
2018-03-07T21:30:44.943Z,22.20
2018-03-07T21:33:18.457Z,23.90
2018-03-07T21:35:52.010Z,21.23
2018-03-07T21:38:25.758Z,16.23
2018-03-07T21:40:59.321Z,22.40
2018-03-07T21:43:32.970Z,10.43
2018-03-07T21:46:06.518Z,12.23
2018-03-07T21:48:40.145Z,18.87
2018-03-07T21:51:13.793Z,14.83
2018-03-07T21:53:47.375Z,15.37
2018-03-07T21:56:21.005Z,16.63
2018-03-07T21:58:54.530Z,20.63
2018-03-07T22:01:28.298Z,19.07
2018-03-07T22:04:01.953Z,18.73
2018-03-07T22:06:35.607Z,16.80
2018-03-07T22:09:09.267Z,16.87
2018-03-07T22:11:43.066Z,17.30
2018-03-07T22:14:16.721Z,18.13
2018-03-07T22:16:50.270Z,19.13
2018-03-07T22:19:24.050Z,20.03
2018-03-07T22:21:57.794Z,21.37
2018-03-07T22:24:31.483Z,21.93
2018-03-07T22:27:05.061Z,22.10
2018-03-07T22:29:38.681Z,24.00
2018-03-07T22:32:12.313Z,24.87
2018-03-07T22:34:45.937Z,28.70
2018-03-07T22:37:19.546Z,29.13
2018-03-07T22:39:53.089Z,27.80
2018-03-07T22:42:26.690Z,29.33
2018-03-07T22:45:00.342Z,30.20
2018-03-07T22:47:33.922Z,31.40
2018-03-07T22:50:07.607Z,31.23
2018-03-07T22:52:41.286Z,30.03
2018-03-07T22:55:14.858Z,34.27
2018-03-07T22:57:48.441Z,32.00
2018-03-07T23:00:27.614Z,32.07
2018-03-07T23:03:01.317Z,32.60
2018-03-07T23:05:34.937Z,33.33
2018-03-07T23:08:08.662Z,32.57
2018-03-07T23:10:42.213Z,31.53
2018-03-07T23:13:15.877Z,32.20
2018-03-07T23:15:49.556Z,34.53
2018-03-07T23:18:23.161Z,32.80
2018-03-07T23:20:56.782Z,35.20
2018-03-07T23:23:30.400Z,34.57
2018-03-07T23:26:04.086Z,35.13
2018-03-07T23:28:37.658Z,36.10
2018-03-07T23:31:11.241Z,35.70
2018-03-07T23:33:45.186Z,36.83
2018-03-07T23:36:18.792Z,37.10
2018-03-07T23:38:52.428Z,37.80
2018-03-07T23:41:26.074Z,40.53
2018-03-07T23:43:59.782Z,40.80
2018-03-07T23:46:33.712Z,39.40
2018-03-07T23:49:07.209Z,38.77
2018-03-07T23:51:40.862Z,39.20
2018-03-07T23:54:14.381Z,37.83
2018-03-07T23:56:48.061Z,43.43
2018-03-07T23:59:21.833Z,43.70
